AirNav   TITAN Aviation Fuels
 
 866 users online  

C67 Lake Pleasant Seaplane Base
Angola, Indiana, USA

GOING TO ANGOLA?


FAA INFORMATION EFFECTIVE 01 DECEMBER 2022

Location

FAA Identifier: C67
Lat/Long: 41-45-25.2000N 085-05-31.0000W
41-45.420000N 085-05.516667W
41.7570000,-85.0919444
(estimated)
Elevation: 960 ft. / 293 m (estimated)
Variation: 04W (1995)
From city: 8 miles SE of ANGOLA, IN
Time zone: UTC -5 (UTC -4 during Daylight Saving Time)
Zip code: 46776

Seaplane Base Operations

Seaplane Base use: Open to the public
Activation date: 08/1999
Control tower: no
ARTCC: CHICAGO CENTER
FSS: LANSING FLIGHT SERVICE STATION
NOTAMs facility: LAN (NOTAM-D service available)
Attendance: UNATNDD
Segmented circle: no

Seaplane Base Communications

CTAF: 122.9
WX AWOS-3 at ANQ (7 nm S): 118.175 (260-668-5630)
WX AWOS-3 at OEB (11 nm N): 118.125 (517-279-1810)
WX AWOS-3 at IRS (16 nm W): 121.325 (269-659-8715)
WX AWOS-3P at C62 (19 nm SW): 119.925 (260-347-2967)

Nearby radio navigation aids

VOR radial/distance  VOR name  Freq  Var
LFDr224/23.4LITCHFIELD VOR/DME111.2005W
AZOr145/35.4KALAMAZOO VOR/DME109.0001W
OLKr034/(35.6)WEBSTER LAKE VOR110.4003W

 
NDB name  Hdg/Dist  Freq  Var  ID
STURGIS106/15.738204WIRS .. .-. ...

Seaplane Base Services

Runway Information

Runway 10W/28W

Dimensions: 3500 x 500 ft. / 1067 x 152 m
Surface: water
RUNWAY 10W  RUNWAY 28W
Traffic pattern: leftright

Seaplane Base Ownership and Management from official FAA records

Ownership: Publicly-owned
Owner: IN DEPT OF NATURAL RESOURCES
402 W WASHINGTON ST, RM. W-255D
INDIANAPOLIS, IN 46204
Phone (317) 232-0935
Manager: KENTON TURNER
402 W WASHINGTON ST, RM. W-255D
INDIANAPOLIS, IN 46204
Phone (317) 232-0935
BOATING LAW ADMINISTRATOR

Additional Remarks

SEAPLANE OPNS PROHIBITED BTN SS-SR.
EXPC HVY BOAT TFC BTN MEML DAY & LABOR DAY, USE CAUTION.
DO NOT BLOCK RAMPS, PUB FACS FOR SEAPLANE DCKG LTD.
FOR CD CTC GREAT LAKES APCH AT 269-459-3344, WHEN APCH CLSD CTC CHICAGO ARTCC AT 630-906-8921.

Instrument Procedures

There are no published instrument procedures at C67.

Some nearby airports with instrument procedures:

KANQ - Tri-State Steuben County Airport (7 nm S)
KOEB - Branch County Memorial Airport (11 nm N)
KIRS - Kirsch Municipal Airport (16 nm W)
C62 - Kendallville Municipal Airport (19 nm SW)
KJYM - Hillsdale Municipal Airport (25 nm NE)
 
Loc | Ops | Rwys | IFR | FBO | Links
Com | Nav | Svcs | Stats | Notes
Area around C67 (Lake Pleasant Seaplane Base)
 
Road maps at: MapQuest Bing Google
 
Aerial photo
WARNING: Photo may not be current or correct
Aerial photo of C67 (Lake Pleasant Seaplane Base)
Photo by Mark Hansbarger
Photo taken 13-Aug-2009

Do you have a better or more recent aerial photo of Lake Pleasant Seaplane Base that you would like to share? If so, please send us your photo.

 
Sectional chart

 
Airport distance calculator
Flying to Lake Pleasant Seaplane Base? Find the distance to fly.

From to C67

Sunrise and sunset
Times for 04-Dec-2022
 Local
(UTC-5)
 Zulu
(UTC)
Morning civil twilight07:2112:21
Sunrise07:5212:52
Sunset17:0922:09
Evening civil twilight17:4022:40

Current date and time
Zulu (UTC)  04-Dec-2022 14:41:50
Local (UTC-5)  04-Dec-2022 09:41:50
 
METAR
KANQ 
7nm S 
041415Z AUTO 22008KT 10SM CLR M06/M10 A3024 RMK AO2
KOEB 
10nm N 
041415Z AUTO 23008KT 10SM CLR M06/M11 A3024 RMK AO2 T10571106
KIRS 
15nm W 
041415Z AUTO 21008KT 10SM CLR M07/M10 A3023 RMK AO2 T10661098
KC62 
19nm SW 
041415Z AUTO 23006KT 10SM CLR M07/M10 A3025 RMK AO2 T10741103
TAF
KBTL 
34nm N 
041140Z 0412/0512 22010KT P6SM SKC
KAZO 
35nm NW 
041140Z 0412/0512 22010KT P6SM SKC
KJXN 
41nm NE 
041140Z 0412/0512 21008KT P6SM SKC FM041500 24010G17KT P6SM SKC FM050000 21008KT P6SM SKC
NOTAMs
Click for the latest NOTAMs
NOTAMs are issued by the DoD/FAA and will open in a separate window not controlled by AirNav.

 

 
 

Would you like to see your business listed on this page?

 If your business provides an interesting product or service to pilots, flight crews, aircraft, or users of the Lake Pleasant Seaplane Base, you should consider listing it here.  To start the listing process, click on the button below
 
Add a business
 

Other Pages about Lake Pleasant Seaplane Base

Update a link
 
Copyright © AirNav, LLC. All rights reserved. Privacy Policy  Contact